sensor_id;sensor_type;location;lat;lon;timestamp;P1;durP1;ratioP1;P2;durP2;ratioP2
14078;SDS011;7115;50.150;8.568;2023-11-21T00:01:32;8.67;;;3.03;;
14078;SDS011;7115;50.150;8.568;2023-11-21T00:04:01;7.57;;;2.90;;
14078;SDS011;7115;50.150;8.568;2023-11-21T00:06:28;9.97;;;3.50;;
14078;SDS011;7115;50.150;8.568;2023-11-21T00:08:56;10.80;;;3.27;;
14078;SDS011;7115;50.150;8.568;2023-11-21T00:11:23;5.03;;;2.57;;
14078;SDS011;7115;50.150;8.568;2023-11-21T00:13:51;3.90;;;2.63;;
14078;SDS011;7115;50.150;8.568;2023-11-21T00:16:18;6.30;;;2.70;;
14078;SDS011;7115;50.150;8.568;2023-11-21T00:18:45;6.73;;;3.00;;
14078;SDS011;7115;50.150;8.568;2023-11-21T00:21:14;7.77;;;3.63;;
14078;SDS011;7115;50.150;8.568;2023-11-21T00:23:41;5.67;;;2.83;;
14078;SDS011;7115;50.150;8.568;2023-11-21T00:26:08;8.73;;;3.40;;
14078;SDS011;7115;50.150;8.568;2023-11-21T00:28:36;6.00;;;2.83;;
14078;SDS011;7115;50.150;8.568;2023-11-21T00:31:03;9.70;;;3.50;;
14078;SDS011;7115;50.150;8.568;2023-11-21T00:33:30;7.13;;;3.20;;
14078;SDS011;7115;50.150;8.568;2023-11-21T00:35:58;8.77;;;3.50;;
14078;SDS011;7115;50.150;8.568;2023-11-21T00:38:26;5.53;;;2.77;;
14078;SDS011;7115;50.150;8.568;2023-11-21T00:40:53;5.70;;;2.83;;
14078;SDS011;7115;50.150;8.568;2023-11-21T00:43:22;7.43;;;3.20;;
14078;SDS011;7115;50.150;8.568;2023-11-21T00:45:50;8.23;;;3.00;;
14078;SDS011;7115;50.150;8.568;2023-11-21T00:48:17;7.10;;;3.53;;
14078;SDS011;7115;50.150;8.568;2023-11-21T00:50:44;8.67;;;3.20;;
14078;SDS011;7115;50.150;8.568;2023-11-21T00:53:11;7.10;;;3.40;;
14078;SDS011;7115;50.150;8.568;2023-11-21T00:55:39;5.90;;;3.47;;
14078;SDS011;7115;50.150;8.568;2023-11-21T00:58:07;5.03;;;2.67;;
14078;SDS011;7115;50.150;8.568;2023-11-21T01:00:34;5.83;;;3.33;;
14078;SDS011;7115;50.150;8.568;2023-11-21T01:03:01;8.90;;;2.80;;
14078;SDS011;7115;50.150;8.568;2023-11-21T01:05:28;8.60;;;4.03;;
14078;SDS011;7115;50.150;8.568;2023-11-21T01:07:55;7.93;;;3.80;;
14078;SDS011;7115;50.150;8.568;2023-11-21T01:10:22;10.10;;;3.53;;
14078;SDS011;7115;50.150;8.568;2023-11-21T01:12:52;8.50;;;3.43;;
14078;SDS011;7115;50.150;8.568;2023-11-21T01:15:19;4.97;;;3.50;;
14078;SDS011;7115;50.150;8.568;2023-11-21T01:17:47;10.37;;;3.50;;
14078;SDS011;7115;50.150;8.568;2023-11-21T01:20:14;7.73;;;3.30;;
14078;SDS011;7115;50.150;8.568;2023-11-21T01:22:41;8.60;;;3.47;;
14078;SDS011;7115;50.150;8.568;2023-11-21T01:25:09;7.00;;;3.30;;
14078;SDS011;7115;50.150;8.568;2023-11-21T01:27:37;8.33;;;3.40;;
14078;SDS011;7115;50.150;8.568;2023-11-21T01:30:06;6.60;;;3.43;;
14078;SDS011;7115;50.150;8.568;2023-11-21T01:32:34;6.47;;;3.00;;
14078;SDS011;7115;50.150;8.568;2023-11-21T01:35:01;5.33;;;2.93;;
14078;SDS011;7115;50.150;8.568;2023-11-21T01:37:28;4.40;;;2.80;;
14078;SDS011;7115;50.150;8.568;2023-11-21T01:39:56;3.30;;;2.10;;
14078;SDS011;7115;50.150;8.568;2023-11-21T01:42:23;4.90;;;2.60;;
14078;SDS011;7115;50.150;8.568;2023-11-21T01:44:50;3.13;;;2.33;;
14078;SDS011;7115;50.150;8.568;2023-11-21T01:47:19;5.03;;;2.67;;
14078;SDS011;7115;50.150;8.568;2023-11-21T01:49:47;3.77;;;2.83;;
14078;SDS011;7115;50.150;8.568;2023-11-21T01:52:14;4.70;;;3.30;;
14078;SDS011;7115;50.150;8.568;2023-11-21T01:54:41;5.50;;;3.00;;
14078;SDS011;7115;50.150;8.568;2023-11-21T01:57:09;4.03;;;2.90;;
14078;SDS011;7115;50.150;8.568;2023-11-21T01:59:36;6.53;;;3.60;;
14078;SDS011;7115;50.150;8.568;2023-11-21T02:02:04;6.30;;;3.77;;
14078;SDS011;7115;50.150;8.568;2023-11-21T02:04:33;6.97;;;3.63;;
14078;SDS011;7115;50.150;8.568;2023-11-21T02:07:01;8.43;;;6.03;;
14078;SDS011;7115;50.150;8.568;2023-11-21T02:09:31;10.57;;;5.10;;
14078;SDS011;7115;50.150;8.568;2023-11-21T02:12:00;7.33;;;5.27;;
14078;SDS011;7115;50.150;8.568;2023-11-21T02:14:28;8.10;;;5.50;;
14078;SDS011;7115;50.150;8.568;2023-11-21T02:16:57;8.50;;;6.13;;
14078;SDS011;7115;50.150;8.568;2023-11-21T02:19:24;9.23;;;5.80;;
14078;SDS011;7115;50.150;8.568;2023-11-21T02:21:57;8.70;;;5.50;;
14078;SDS011;7115;50.150;8.568;2023-11-21T02:24:32;7.37;;;5.33;;
14078;SDS011;7115;50.150;8.568;2023-11-21T02:26:59;8.77;;;5.37;;
14078;SDS011;7115;50.150;8.568;2023-11-21T02:29:26;6.77;;;5.13;;
14078;SDS011;7115;50.150;8.568;2023-11-21T02:31:54;7.13;;;5.10;;
14078;SDS011;7115;50.150;8.568;2023-11-21T02:34:22;8.23;;;5.13;;
14078;SDS011;7115;50.150;8.568;2023-11-21T02:36:51;5.83;;;4.70;;
14078;SDS011;7115;50.150;8.568;2023-11-21T02:39:18;5.47;;;4.33;;
14078;SDS011;7115;50.150;8.568;2023-11-21T02:41:50;8.53;;;4.63;;
14078;SDS011;7115;50.150;8.568;2023-11-21T02:44:17;6.10;;;4.43;;
14078;SDS011;7115;50.150;8.568;2023-11-21T02:46:43;7.07;;;4.73;;
14078;SDS011;7115;50.150;8.568;2023-11-21T02:49:11;11.77;;;4.60;;
14078;SDS011;7115;50.150;8.568;2023-11-21T02:51:38;5.90;;;4.30;;
14078;SDS011;7115;50.150;8.568;2023-11-21T02:54:05;7.90;;;4.87;;
14078;SDS011;7115;50.150;8.568;2023-11-21T02:56:34;9.07;;;5.33;;
14078;SDS011;7115;50.150;8.568;2023-11-21T02:59:02;9.57;;;5.67;;
14078;SDS011;7115;50.150;8.568;2023-11-21T03:01:29;12.57;;;6.43;;
14078;SDS011;7115;50.150;8.568;2023-11-21T03:03:57;11.60;;;6.67;;
14078;SDS011;7115;50.150;8.568;2023-11-21T03:06:24;12.83;;;7.33;;
14078;SDS011;7115;50.150;8.568;2023-11-21T03:08:51;11.77;;;7.17;;
14078;SDS011;7115;50.150;8.568;2023-11-21T03:11:18;11.93;;;7.73;;
14078;SDS011;7115;50.150;8.568;2023-11-21T03:13:45;19.13;;;8.63;;
14078;SDS011;7115;50.150;8.568;2023-11-21T03:16:14;16.97;;;8.47;;
14078;SDS011;7115;50.150;8.568;2023-11-21T03:18:42;12.83;;;7.63;;
14078;SDS011;7115;50.150;8.568;2023-11-21T03:21:09;13.13;;;7.30;;
14078;SDS011;7115;50.150;8.568;2023-11-21T03:23:36;11.77;;;7.13;;
14078;SDS011;7115;50.150;8.568;2023-11-21T03:26:03;13.13;;;7.20;;
14078;SDS011;7115;50.150;8.568;2023-11-21T03:28:30;11.87;;;7.50;;
14078;SDS011;7115;50.150;8.568;2023-11-21T03:30:57;15.57;;;7.20;;
14078;SDS011;7115;50.150;8.568;2023-11-21T03:33:25;13.40;;;8.47;;
14078;SDS011;7115;50.150;8.568;2023-11-21T03:35:52;11.33;;;7.17;;
14078;SDS011;7115;50.150;8.568;2023-11-21T03:38:19;13.90;;;7.57;;
14078;SDS011;7115;50.150;8.568;2023-11-21T03:40:46;10.93;;;7.50;;
14078;SDS011;7115;50.150;8.568;2023-11-21T03:43:14;15.20;;;7.77;;
14078;SDS011;7115;50.150;8.568;2023-11-21T03:45:41;12.50;;;7.53;;
14078;SDS011;7115;50.150;8.568;2023-11-21T03:48:08;13.33;;;7.70;;
14078;SDS011;7115;50.150;8.568;2023-11-21T03:50:36;14.73;;;8.83;;
14078;SDS011;7115;50.150;8.568;2023-11-21T03:53:03;15.37;;;8.20;;
14078;SDS011;7115;50.150;8.568;2023-11-21T03:55:30;19.40;;;9.37;;
14078;SDS011;7115;50.150;8.568;2023-11-21T03:57:58;17.43;;;8.90;;
14078;SDS011;7115;50.150;8.568;2023-11-21T04:00:25;15.63;;;9.27;;
14078;SDS011;7115;50.150;8.568;2023-11-21T04:02:55;15.23;;;9.27;;
14078;SDS011;7115;50.150;8.568;2023-11-21T04:05:22;18.13;;;9.77;;
14078;SDS011;7115;50.150;8.568;2023-11-21T04:07:51;14.47;;;9.30;;
14078;SDS011;7115;50.150;8.568;2023-11-21T04:10:18;15.07;;;8.40;;
14078;SDS011;7115;50.150;8.568;2023-11-21T04:12:45;15.63;;;9.20;;
14078;SDS011;7115;50.150;8.568;2023-11-21T04:15:13;16.20;;;9.70;;
14078;SDS011;7115;50.150;8.568;2023-11-21T04:17:40;16.10;;;9.07;;
14078;SDS011;7115;50.150;8.568;2023-11-21T04:20:08;14.67;;;9.43;;
14078;SDS011;7115;50.150;8.568;2023-11-21T04:22:37;17.77;;;9.30;;
14078;SDS011;7115;50.150;8.568;2023-11-21T04:25:09;15.87;;;9.67;;
14078;SDS011;7115;50.150;8.568;2023-11-21T04:27:38;18.97;;;9.80;;
14078;SDS011;7115;50.150;8.568;2023-11-21T04:30:06;15.43;;;8.67;;
14078;SDS011;7115;50.150;8.568;2023-11-21T04:32:33;16.80;;;9.03;;
14078;SDS011;7115;50.150;8.568;2023-11-21T04:35:00;18.63;;;9.83;;
14078;SDS011;7115;50.150;8.568;2023-11-21T04:37:27;11.80;;;7.37;;
14078;SDS011;7115;50.150;8.568;2023-11-21T04:39:54;9.90;;;5.83;;
14078;SDS011;7115;50.150;8.568;2023-11-21T04:42:22;9.07;;;5.73;;
14078;SDS011;7115;50.150;8.568;2023-11-21T04:44:49;8.07;;;5.70;;
14078;SDS011;7115;50.150;8.568;2023-11-21T04:47:16;5.67;;;4.33;;
14078;SDS011;7115;50.150;8.568;2023-11-21T04:49:45;12.10;;;5.93;;
14078;SDS011;7115;50.150;8.568;2023-11-21T04:52:15;8.23;;;5.00;;
14078;SDS011;7115;50.150;8.568;2023-11-21T04:54:42;6.83;;;4.67;;
14078;SDS011;7115;50.150;8.568;2023-11-21T04:57:09;8.57;;;4.87;;
14078;SDS011;7115;50.150;8.568;2023-11-21T04:59:38;7.70;;;4.97;;
14078;SDS011;7115;50.150;8.568;2023-11-21T05:02:05;7.43;;;4.93;;
14078;SDS011;7115;50.150;8.568;2023-11-21T05:04:32;9.27;;;5.10;;
14078;SDS011;7115;50.150;8.568;2023-11-21T05:06:59;9.27;;;5.60;;
14078;SDS011;7115;50.150;8.568;2023-11-21T05:09:27;10.60;;;5.63;;
14078;SDS011;7115;50.150;8.568;2023-11-21T05:11:58;11.07;;;5.27;;
14078;SDS011;7115;50.150;8.568;2023-11-21T05:14:26;8.17;;;5.13;;
14078;SDS011;7115;50.150;8.568;2023-11-21T05:16:54;10.00;;;6.00;;
14078;SDS011;7115;50.150;8.568;2023-11-21T05:19:21;9.83;;;5.57;;
14078;SDS011;7115;50.150;8.568;2023-11-21T05:21:49;7.77;;;5.77;;
14078;SDS011;7115;50.150;8.568;2023-11-21T05:24:16;10.27;;;5.80;;
14078;SDS011;7115;50.150;8.568;2023-11-21T05:26:43;9.97;;;5.63;;
14078;SDS011;7115;50.150;8.568;2023-11-21T05:29:09;9.17;;;5.43;;
14078;SDS011;7115;50.150;8.568;2023-11-21T05:31:37;11.33;;;6.17;;
14078;SDS011;7115;50.150;8.568;2023-11-21T05:34:05;7.97;;;5.50;;
14078;SDS011;7115;50.150;8.568;2023-11-21T05:36:32;13.30;;;6.40;;
14078;SDS011;7115;50.150;8.568;2023-11-21T05:39:00;9.27;;;6.50;;
14078;SDS011;7115;50.150;8.568;2023-11-21T05:41:27;8.37;;;6.00;;
14078;SDS011;7115;50.150;8.568;2023-11-21T05:43:53;10.00;;;5.77;;
14078;SDS011;7115;50.150;8.568;2023-11-21T05:46:20;10.07;;;6.40;;
14078;SDS011;7115;50.150;8.568;2023-11-21T05:48:48;8.33;;;5.83;;
14078;SDS011;7115;50.150;8.568;2023-11-21T05:51:16;12.33;;;6.30;;
14078;SDS011;7115;50.150;8.568;2023-11-21T05:53:43;11.07;;;6.40;;
14078;SDS011;7115;50.150;8.568;2023-11-21T05:56:10;10.90;;;7.47;;
14078;SDS011;7115;50.150;8.568;2023-11-21T05:58:38;9.13;;;6.83;;
14078;SDS011;7115;50.150;8.568;2023-11-21T06:01:05;13.00;;;6.57;;
14078;SDS011;7115;50.150;8.568;2023-11-21T06:03:39;9.07;;;5.93;;
14078;SDS011;7115;50.150;8.568;2023-11-21T06:06:06;9.90;;;6.70;;
14078;SDS011;7115;50.150;8.568;2023-11-21T06:08:34;7.77;;;5.63;;
14078;SDS011;7115;50.150;8.568;2023-11-21T06:11:01;6.90;;;4.57;;
14078;SDS011;7115;50.150;8.568;2023-11-21T06:13:29;7.40;;;4.30;;
14078;SDS011;7115;50.150;8.568;2023-11-21T06:15:56;8.37;;;4.53;;
14078;SDS011;7115;50.150;8.568;2023-11-21T06:18:23;8.00;;;4.17;;
14078;SDS011;7115;50.150;8.568;2023-11-21T06:20:50;6.67;;;3.83;;
14078;SDS011;7115;50.150;8.568;2023-11-21T06:23:19;5.57;;;3.30;;
14078;SDS011;7115;50.150;8.568;2023-11-21T06:25:48;4.97;;;3.00;;
14078;SDS011;7115;50.150;8.568;2023-11-21T06:28:15;5.07;;;2.67;;
14078;SDS011;7115;50.150;8.568;2023-11-21T06:30:44;4.07;;;2.20;;
14078;SDS011;7115;50.150;8.568;2023-11-21T06:33:11;3.00;;;2.13;;
14078;SDS011;7115;50.150;8.568;2023-11-21T06:35:38;3.47;;;1.90;;
14078;SDS011;7115;50.150;8.568;2023-11-21T06:38:06;2.27;;;1.60;;
14078;SDS011;7115;50.150;8.568;2023-11-21T06:40:33;2.67;;;1.63;;
14078;SDS011;7115;50.150;8.568;2023-11-21T06:43:02;3.13;;;2.20;;
14078;SDS011;7115;50.150;8.568;2023-11-21T06:45:28;3.50;;;1.70;;
14078;SDS011;7115;50.150;8.568;2023-11-21T06:47:55;2.67;;;1.63;;
14078;SDS011;7115;50.150;8.568;2023-11-21T06:50:23;4.30;;;1.90;;
14078;SDS011;7115;50.150;8.568;2023-11-21T06:52:50;2.53;;;1.70;;
14078;SDS011;7115;50.150;8.568;2023-11-21T06:55:17;2.80;;;1.50;;
14078;SDS011;7115;50.150;8.568;2023-11-21T06:57:44;2.50;;;1.90;;
14078;SDS011;7115;50.150;8.568;2023-11-21T07:00:13;2.30;;;1.80;;
14078;SDS011;7115;50.150;8.568;2023-11-21T07:02:42;4.67;;;1.90;;
14078;SDS011;7115;50.150;8.568;2023-11-21T07:05:09;2.60;;;2.00;;
14078;SDS011;7115;50.150;8.568;2023-11-21T07:07:36;8.17;;;5.50;;
14078;SDS011;7115;50.150;8.568;2023-11-21T07:10:04;5.70;;;3.03;;
14078;SDS011;7115;50.150;8.568;2023-11-21T07:12:32;3.93;;;2.23;;
14078;SDS011;7115;50.150;8.568;2023-11-21T07:14:59;3.30;;;2.63;;
14078;SDS011;7115;50.150;8.568;2023-11-21T07:17:27;4.30;;;2.50;;
14078;SDS011;7115;50.150;8.568;2023-11-21T07:19:54;6.73;;;2.47;;
14078;SDS011;7115;50.150;8.568;2023-11-21T07:22:21;8.10;;;2.50;;
14078;SDS011;7115;50.150;8.568;2023-11-21T07:24:48;4.90;;;2.27;;
14078;SDS011;7115;50.150;8.568;2023-11-21T07:27:18;4.60;;;2.90;;
14078;SDS011;7115;50.150;8.568;2023-11-21T07:29:45;4.40;;;2.60;;
14078;SDS011;7115;50.150;8.568;2023-11-21T07:32:14;3.80;;;2.50;;
14078;SDS011;7115;50.150;8.568;2023-11-21T07:34:42;6.63;;;2.77;;
14078;SDS011;7115;50.150;8.568;2023-11-21T07:37:09;6.53;;;2.57;;
14078;SDS011;7115;50.150;8.568;2023-11-21T07:39:36;3.47;;;2.40;;
14078;SDS011;7115;50.150;8.568;2023-11-21T07:42:03;3.23;;;2.40;;
14078;SDS011;7115;50.150;8.568;2023-11-21T07:44:30;3.30;;;2.53;;
14078;SDS011;7115;50.150;8.568;2023-11-21T07:46:57;6.00;;;3.50;;
14078;SDS011;7115;50.150;8.568;2023-11-21T07:49:24;7.27;;;2.80;;
14078;SDS011;7115;50.150;8.568;2023-11-21T07:51:54;4.63;;;2.20;;
14078;SDS011;7115;50.150;8.568;2023-11-21T07:54:21;6.63;;;2.50;;
14078;SDS011;7115;50.150;8.568;2023-11-21T07:56:48;4.90;;;2.53;;
14078;SDS011;7115;50.150;8.568;2023-11-21T07:59:15;6.57;;;2.53;;
14078;SDS011;7115;50.150;8.568;2023-11-21T08:01:41;9.07;;;2.80;;
14078;SDS011;7115;50.150;8.568;2023-11-21T08:04:09;5.83;;;3.07;;
14078;SDS011;7115;50.150;8.568;2023-11-21T08:06:36;3.30;;;2.33;;
14078;SDS011;7115;50.150;8.568;2023-11-21T08:09:05;3.97;;;2.17;;
14078;SDS011;7115;50.150;8.568;2023-11-21T08:11:34;4.43;;;3.20;;
14078;SDS011;7115;50.150;8.568;2023-11-21T08:14:01;10.53;;;6.17;;
14078;SDS011;7115;50.150;8.568;2023-11-21T08:16:28;10.67;;;6.13;;
14078;SDS011;7115;50.150;8.568;2023-11-21T08:18:55;5.23;;;3.13;;
14078;SDS011;7115;50.150;8.568;2023-11-21T08:21:22;7.63;;;4.27;;
14078;SDS011;7115;50.150;8.568;2023-11-21T08:23:51;10.60;;;5.43;;
14078;SDS011;7115;50.150;8.568;2023-11-21T08:26:21;6.20;;;3.57;;
14078;SDS011;7115;50.150;8.568;2023-11-21T08:28:49;6.63;;;3.27;;
14078;SDS011;7115;50.150;8.568;2023-11-21T08:31:23;5.73;;;3.60;;
14078;SDS011;7115;50.150;8.568;2023-11-21T08:33:51;6.37;;;3.53;;
14078;SDS011;7115;50.150;8.568;2023-11-21T08:36:21;12.50;;;7.27;;
14078;SDS011;7115;50.150;8.568;2023-11-21T08:38:50;4.70;;;3.17;;
14078;SDS011;7115;50.150;8.568;2023-11-21T08:41:22;4.20;;;3.20;;
14078;SDS011;7115;50.150;8.568;2023-11-21T08:43:49;5.33;;;3.00;;
14078;SDS011;7115;50.150;8.568;2023-11-21T08:46:17;5.97;;;2.80;;
14078;SDS011;7115;50.150;8.568;2023-11-21T08:48:45;6.03;;;3.27;;
14078;SDS011;7115;50.150;8.568;2023-11-21T08:51:12;6.33;;;3.23;;
14078;SDS011;7115;50.150;8.568;2023-11-21T08:53:40;10.03;;;3.80;;
14078;SDS011;7115;50.150;8.568;2023-11-21T08:56:08;7.57;;;3.83;;
14078;SDS011;7115;50.150;8.568;2023-11-21T08:58:40;6.97;;;3.50;;
14078;SDS011;7115;50.150;8.568;2023-11-21T09:01:08;8.60;;;3.37;;
14078;SDS011;7115;50.150;8.568;2023-11-21T09:03:35;6.30;;;3.20;;
14078;SDS011;7115;50.150;8.568;2023-11-21T09:06:03;6.47;;;3.17;;
14078;SDS011;7115;50.150;8.568;2023-11-21T09:08:30;4.40;;;2.53;;
14078;SDS011;7115;50.150;8.568;2023-11-21T09:10:58;5.80;;;3.03;;
14078;SDS011;7115;50.150;8.568;2023-11-21T09:13:25;5.03;;;3.10;;
14078;SDS011;7115;50.150;8.568;2023-11-21T09:15:53;5.70;;;2.87;;
14078;SDS011;7115;50.150;8.568;2023-11-21T09:18:21;7.87;;;3.10;;
14078;SDS011;7115;50.150;8.568;2023-11-21T09:20:48;5.37;;;2.53;;
14078;SDS011;7115;50.150;8.568;2023-11-21T09:23:15;5.57;;;2.60;;
14078;SDS011;7115;50.150;8.568;2023-11-21T09:25:42;6.50;;;2.63;;
14078;SDS011;7115;50.150;8.568;2023-11-21T09:28:12;6.50;;;3.13;;
14078;SDS011;7115;50.150;8.568;2023-11-21T09:30:39;5.73;;;3.10;;
14078;SDS011;7115;50.150;8.568;2023-11-21T09:33:08;6.23;;;3.50;;
14078;SDS011;7115;50.150;8.568;2023-11-21T09:35:37;5.90;;;2.87;;
14078;SDS011;7115;50.150;8.568;2023-11-21T09:38:04;5.73;;;2.80;;
14078;SDS011;7115;50.150;8.568;2023-11-21T09:40:38;6.30;;;3.40;;
14078;SDS011;7115;50.150;8.568;2023-11-21T09:43:05;7.40;;;3.60;;
14078;SDS011;7115;50.150;8.568;2023-11-21T09:45:34;6.87;;;3.23;;
14078;SDS011;7115;50.150;8.568;2023-11-21T09:48:02;9.00;;;3.57;;
14078;SDS011;7115;50.150;8.568;2023-11-21T09:50:30;8.77;;;4.67;;
14078;SDS011;7115;50.150;8.568;2023-11-21T09:53:03;11.40;;;6.50;;
14078;SDS011;7115;50.150;8.568;2023-11-21T09:55:37;7.27;;;2.63;;
14078;SDS011;7115;50.150;8.568;2023-11-21T09:58:07;7.40;;;2.80;;
14078;SDS011;7115;50.150;8.568;2023-11-21T10:00:39;5.57;;;2.27;;
14078;SDS011;7115;50.150;8.568;2023-11-21T10:03:07;5.03;;;2.40;;
14078;SDS011;7115;50.150;8.568;2023-11-21T10:05:36;5.00;;;2.83;;
14078;SDS011;7115;50.150;8.568;2023-11-21T10:08:04;5.40;;;2.27;;
14078;SDS011;7115;50.150;8.568;2023-11-21T10:10:33;8.67;;;2.57;;
14078;SDS011;7115;50.150;8.568;2023-11-21T10:13:03;7.83;;;2.00;;
14078;SDS011;7115;50.150;8.568;2023-11-21T10:15:34;7.07;;;2.47;;
14078;SDS011;7115;50.150;8.568;2023-11-21T10:18:01;6.73;;;3.07;;
14078;SDS011;7115;50.150;8.568;2023-11-21T10:20:30;4.80;;;2.63;;
14078;SDS011;7115;50.150;8.568;2023-11-21T10:23:01;7.67;;;3.17;;
14078;SDS011;7115;50.150;8.568;2023-11-21T10:25:29;6.50;;;3.20;;
14078;SDS011;7115;50.150;8.568;2023-11-21T10:27:57;8.57;;;3.50;;
14078;SDS011;7115;50.150;8.568;2023-11-21T10:30:32;6.93;;;3.03;;
14078;SDS011;7115;50.150;8.568;2023-11-21T10:32:59;7.07;;;2.33;;
14078;SDS011;7115;50.150;8.568;2023-11-21T10:35:38;9.13;;;3.30;;
14078;SDS011;7115;50.150;8.568;2023-11-21T10:38:09;6.70;;;2.60;;
14078;SDS011;7115;50.150;8.568;2023-11-21T10:40:37;6.13;;;2.23;;
14078;SDS011;7115;50.150;8.568;2023-11-21T10:43:06;7.63;;;2.40;;
14078;SDS011;7115;50.150;8.568;2023-11-21T10:45:35;5.33;;;2.20;;
14078;SDS011;7115;50.150;8.568;2023-11-21T10:48:04;4.60;;;2.37;;
14078;SDS011;7115;50.150;8.568;2023-11-21T10:50:34;3.40;;;1.90;;
14078;SDS011;7115;50.150;8.568;2023-11-21T10:53:02;5.20;;;2.50;;
14078;SDS011;7115;50.150;8.568;2023-11-21T10:55:31;4.00;;;2.10;;
14078;SDS011;7115;50.150;8.568;2023-11-21T10:58:00;3.77;;;2.10;;
14078;SDS011;7115;50.150;8.568;2023-11-21T11:00:28;4.97;;;2.73;;
14078;SDS011;7115;50.150;8.568;2023-11-21T11:02:56;4.10;;;2.50;;
14078;SDS011;7115;50.150;8.568;2023-11-21T11:05:26;4.27;;;2.13;;
14078;SDS011;7115;50.150;8.568;2023-11-21T11:07:59;3.13;;;2.27;;
14078;SDS011;7115;50.150;8.568;2023-11-21T11:10:33;8.17;;;2.27;;
14078;SDS011;7115;50.150;8.568;2023-11-21T11:13:01;11.17;;;2.20;;
14078;SDS011;7115;50.150;8.568;2023-11-21T11:15:28;5.83;;;2.57;;
14078;SDS011;7115;50.150;8.568;2023-11-21T11:17:55;4.03;;;2.40;;
14078;SDS011;7115;50.150;8.568;2023-11-21T11:20:27;4.60;;;2.40;;
14078;SDS011;7115;50.150;8.568;2023-11-21T11:23:06;3.40;;;2.10;;
14078;SDS011;7115;50.150;8.568;2023-11-21T11:26:04;3.47;;;2.07;;
14078;SDS011;7115;50.150;8.568;2023-11-21T11:28:44;5.93;;;3.27;;
14078;SDS011;7115;50.150;8.568;2023-11-21T11:31:21;6.87;;;2.63;;
14078;SDS011;7115;50.150;8.568;2023-11-21T11:33:56;5.10;;;1.90;;
14078;SDS011;7115;50.150;8.568;2023-11-21T11:36:29;14.23;;;3.40;;
14078;SDS011;7115;50.150;8.568;2023-11-21T11:39:04;6.73;;;1.93;;
14078;SDS011;7115;50.150;8.568;2023-11-21T11:41:55;4.70;;;1.77;;
14078;SDS011;7115;50.150;8.568;2023-11-21T11:47:15;4.83;;;2.17;;
14078;SDS011;7115;50.150;8.568;2023-11-21T11:49:54;3.50;;;1.50;;
14078;SDS011;7115;50.150;8.568;2023-11-21T11:52:32;2.43;;;1.87;;
14078;SDS011;7115;50.150;8.568;2023-11-21T11:55:03;4.33;;;2.40;;
14078;SDS011;7115;50.150;8.568;2023-11-21T11:57:32;4.10;;;1.90;;
14078;SDS011;7115;50.150;8.568;2023-11-21T12:00:14;3.63;;;2.00;;
14078;SDS011;7115;50.150;8.568;2023-11-21T12:02:44;6.37;;;1.63;;
14078;SDS011;7115;50.150;8.568;2023-11-21T12:05:13;4.43;;;1.80;;
14078;SDS011;7115;50.150;8.568;2023-11-21T12:07:44;9.90;;;2.40;;
14078;SDS011;7115;50.150;8.568;2023-11-21T12:10:14;4.43;;;2.33;;
14078;SDS011;7115;50.150;8.568;2023-11-21T12:12:49;3.87;;;1.87;;
14078;SDS011;7115;50.150;8.568;2023-11-21T12:15:18;4.47;;;1.83;;
14078;SDS011;7115;50.150;8.568;2023-11-21T12:17:46;5.37;;;2.20;;
14078;SDS011;7115;50.150;8.568;2023-11-21T12:20:13;4.17;;;1.90;;
14078;SDS011;7115;50.150;8.568;2023-11-21T12:22:42;3.90;;;1.60;;
14078;SDS011;7115;50.150;8.568;2023-11-21T12:25:10;4.70;;;2.00;;
14078;SDS011;7115;50.150;8.568;2023-11-21T12:27:42;3.37;;;1.70;;
14078;SDS011;7115;50.150;8.568;2023-11-21T12:30:13;4.97;;;2.20;;
14078;SDS011;7115;50.150;8.568;2023-11-21T12:32:40;3.50;;;2.10;;
14078;SDS011;7115;50.150;8.568;2023-11-21T12:35:10;4.33;;;1.77;;
14078;SDS011;7115;50.150;8.568;2023-11-21T12:37:37;3.00;;;1.67;;
14078;SDS011;7115;50.150;8.568;2023-11-21T12:40:06;3.53;;;1.63;;
14078;SDS011;7115;50.150;8.568;2023-11-21T12:42:39;4.30;;;2.00;;
14078;SDS011;7115;50.150;8.568;2023-11-21T12:45:12;5.30;;;1.87;;
14078;SDS011;7115;50.150;8.568;2023-11-21T12:47:47;5.17;;;1.90;;
14078;SDS011;7115;50.150;8.568;2023-11-21T12:50:18;5.37;;;1.77;;
14078;SDS011;7115;50.150;8.568;2023-11-21T12:52:50;4.33;;;1.80;;
14078;SDS011;7115;50.150;8.568;2023-11-21T12:55:18;3.37;;;1.60;;
14078;SDS011;7115;50.150;8.568;2023-11-21T12:57:48;6.17;;;1.80;;
14078;SDS011;7115;50.150;8.568;2023-11-21T13:00:27;7.17;;;2.50;;
14078;SDS011;7115;50.150;8.568;2023-11-21T13:02:56;5.10;;;1.80;;
14078;SDS011;7115;50.150;8.568;2023-11-21T13:05:25;4.50;;;2.10;;
14078;SDS011;7115;50.150;8.568;2023-11-21T13:07:53;3.80;;;2.47;;
14078;SDS011;7115;50.150;8.568;2023-11-21T13:10:22;3.30;;;2.00;;
14078;SDS011;7115;50.150;8.568;2023-11-21T13:12:57;3.70;;;2.17;;
14078;SDS011;7115;50.150;8.568;2023-11-21T13:15:27;4.83;;;2.00;;
14078;SDS011;7115;50.150;8.568;2023-11-21T13:17:57;3.87;;;2.50;;
14078;SDS011;7115;50.150;8.568;2023-11-21T13:20:25;4.60;;;2.10;;
14078;SDS011;7115;50.150;8.568;2023-11-21T13:22:53;2.90;;;1.87;;
14078;SDS011;7115;50.150;8.568;2023-11-21T13:25:26;4.87;;;2.20;;
14078;SDS011;7115;50.150;8.568;2023-11-21T13:27:54;4.63;;;2.73;;
14078;SDS011;7115;50.150;8.568;2023-11-21T13:30:21;4.17;;;1.80;;
14078;SDS011;7115;50.150;8.568;2023-11-21T13:32:54;4.63;;;2.37;;
14078;SDS011;7115;50.150;8.568;2023-11-21T13:35:27;4.53;;;1.90;;
14078;SDS011;7115;50.150;8.568;2023-11-21T13:38:04;3.73;;;2.07;;
14078;SDS011;7115;50.150;8.568;2023-11-21T13:40:33;6.13;;;2.30;;
14078;SDS011;7115;50.150;8.568;2023-11-21T13:43:12;5.97;;;2.13;;
14078;SDS011;7115;50.150;8.568;2023-11-21T13:45:43;4.43;;;1.87;;
14078;SDS011;7115;50.150;8.568;2023-11-21T13:48:13;4.93;;;2.20;;
14078;SDS011;7115;50.150;8.568;2023-11-21T13:50:40;3.83;;;2.43;;
14078;SDS011;7115;50.150;8.568;2023-11-21T13:53:15;3.93;;;1.97;;
14078;SDS011;7115;50.150;8.568;2023-11-21T13:55:48;5.30;;;2.13;;
14078;SDS011;7115;50.150;8.568;2023-11-21T13:58:16;2.83;;;1.80;;
14078;SDS011;7115;50.150;8.568;2023-11-21T14:00:49;6.97;;;2.33;;
14078;SDS011;7115;50.150;8.568;2023-11-21T14:03:24;5.60;;;1.93;;
14078;SDS011;7115;50.150;8.568;2023-11-21T14:06:05;7.23;;;2.00;;
14078;SDS011;7115;50.150;8.568;2023-11-21T14:08:40;6.80;;;2.80;;
14078;SDS011;7115;50.150;8.568;2023-11-21T14:11:07;7.80;;;2.47;;
14078;SDS011;7115;50.150;8.568;2023-11-21T14:13:37;7.10;;;2.57;;
14078;SDS011;7115;50.150;8.568;2023-11-21T14:16:06;5.27;;;2.30;;
14078;SDS011;7115;50.150;8.568;2023-11-21T14:18:37;4.90;;;2.57;;
14078;SDS011;7115;50.150;8.568;2023-11-21T14:21:16;6.73;;;2.77;;
14078;SDS011;7115;50.150;8.568;2023-11-21T14:23:43;5.07;;;2.40;;
14078;SDS011;7115;50.150;8.568;2023-11-21T14:26:11;4.57;;;2.40;;
14078;SDS011;7115;50.150;8.568;2023-11-21T14:28:42;3.53;;;1.97;;
14078;SDS011;7115;50.150;8.568;2023-11-21T14:31:09;5.13;;;2.50;;
14078;SDS011;7115;50.150;8.568;2023-11-21T14:33:41;5.33;;;2.47;;
14078;SDS011;7115;50.150;8.568;2023-11-21T14:36:08;4.43;;;2.13;;
14078;SDS011;7115;50.150;8.568;2023-11-21T14:38:36;4.87;;;2.23;;
14078;SDS011;7115;50.150;8.568;2023-11-21T14:41:06;4.80;;;2.00;;
14078;SDS011;7115;50.150;8.568;2023-11-21T14:43:37;3.70;;;2.27;;
14078;SDS011;7115;50.150;8.568;2023-11-21T14:46:05;4.30;;;2.43;;
14078;SDS011;7115;50.150;8.568;2023-11-21T14:48:36;8.83;;;4.13;;
14078;SDS011;7115;50.150;8.568;2023-11-21T14:51:10;11.83;;;8.73;;
14078;SDS011;7115;50.150;8.568;2023-11-21T14:53:56;8.43;;;5.20;;
14078;SDS011;7115;50.150;8.568;2023-11-21T14:56:32;3.30;;;2.80;;
14078;SDS011;7115;50.150;8.568;2023-11-21T14:59:04;3.50;;;2.43;;
14078;SDS011;7115;50.150;8.568;2023-11-21T15:01:49;4.73;;;2.27;;
14078;SDS011;7115;50.150;8.568;2023-11-21T15:04:22;6.87;;;2.50;;
14078;SDS011;7115;50.150;8.568;2023-11-21T15:07:03;4.20;;;2.37;;
14078;SDS011;7115;50.150;8.568;2023-11-21T15:09:30;6.90;;;2.87;;
14078;SDS011;7115;50.150;8.568;2023-11-21T15:11:58;6.17;;;2.70;;